Pagina principale
METAR-TAF:

METAR-TAF

Aeroporti :

Passo Rolle, Italia

latitudine: 46-18N, longitudine: 011-47E, altezza: 2004 m

Osservazione

Il bollettino è stato emesso 46 minuti fa, alle 08:55 UTC
Vento 4 kt da ovest/nord-ovest
Temperature 12°C
Umidità 58%
Pressione 1025 hPa
Visibilità 10 km o più
Nubi sparse ad un'altezza di 2500 ft

METAR: LIVR 290855Z 30004KT 9999 SCT025 12/04 Q1025 RMK SCT MON LIB VIS MIN 9999

Ora: 11:41 (09:41 UTC)


TAF: mancante

Osservazioni e previsioni meteorologiche di più di 4000 aeroporti (messaggi METAR e TAF).

Le stazioni disponibili sono rappresentate dai dischi gialli e rossi sulla carta.

Puntare il mouse per vedere il nome della stazione.

Clicca sopra per visualizzare le osservazioni e previsioni meteorologiche.

Per cambiare la mappa : fare clic sui pulsanti verdi con una croce nera per ingrandire, il pulsante verde con un trattino per diminuire, o sulla freccia verde per le mappe adiacenti.


METAR-TAF: